sensor_id;sensor_type;location;lat;lon;timestamp;P1;durP1;ratioP1;P2;durP2;ratioP2
28166;SDS011;15455;53.376;-6.262;2024-03-02T00:01:34;11.18;;;6.22;;
28166;SDS011;15455;53.376;-6.262;2024-03-02T00:04:20;6.70;;;6.22;;
28166;SDS011;15455;53.376;-6.262;2024-03-02T00:07:06;8.30;;;7.57;;
28166;SDS011;15455;53.376;-6.262;2024-03-02T00:09:53;7.93;;;7.28;;
28166;SDS011;15455;53.376;-6.262;2024-03-02T00:12:39;9.63;;;7.82;;
28166;SDS011;15455;53.376;-6.262;2024-03-02T00:15:37;6.95;;;6.30;;
28166;SDS011;15455;53.376;-6.262;2024-03-02T00:18:32;7.93;;;7.25;;
28166;SDS011;15455;53.376;-6.262;2024-03-02T00:21:20;10.20;;;7.03;;
28166;SDS011;15455;53.376;-6.262;2024-03-02T00:24:21;7.78;;;7.18;;
28166;SDS011;15455;53.376;-6.262;2024-03-02T00:27:21;20.95;;;9.20;;
28166;SDS011;15455;53.376;-6.262;2024-03-02T00:30:40;8.07;;;5.88;;
28166;SDS011;15455;53.376;-6.262;2024-03-02T00:33:42;7.35;;;6.65;;
28166;SDS011;15455;53.376;-6.262;2024-03-02T00:36:30;9.10;;;7.65;;
28166;SDS011;15455;53.376;-6.262;2024-03-02T00:39:15;10.93;;;8.48;;
28166;SDS011;15455;53.376;-6.262;2024-03-02T00:42:03;12.15;;;9.18;;
28166;SDS011;15455;53.376;-6.262;2024-03-02T00:44:49;6.53;;;6.05;;
28166;SDS011;15455;53.376;-6.262;2024-03-02T00:47:38;9.80;;;6.07;;
28166;SDS011;15455;53.376;-6.262;2024-03-02T00:50:26;8.00;;;7.35;;
28166;SDS011;15455;53.376;-6.262;2024-03-02T00:53:15;9.38;;;7.20;;
28166;SDS011;15455;53.376;-6.262;2024-03-02T00:56:05;5.47;;;5.25;;
28166;SDS011;15455;53.376;-6.262;2024-03-02T00:58:56;7.97;;;6.53;;
28166;SDS011;15455;53.376;-6.262;2024-03-02T01:01:42;5.95;;;5.55;;
28166;SDS011;15455;53.376;-6.262;2024-03-02T01:04:27;11.98;;;6.75;;
28166;SDS011;15455;53.376;-6.262;2024-03-02T01:07:13;6.72;;;5.78;;
28166;SDS011;15455;53.376;-6.262;2024-03-02T01:09:59;10.02;;;6.03;;
28166;SDS011;15455;53.376;-6.262;2024-03-02T01:12:44;7.88;;;6.05;;
28166;SDS011;15455;53.376;-6.262;2024-03-02T01:15:30;15.43;;;7.20;;
28166;SDS011;15455;53.376;-6.262;2024-03-02T01:18:15;7.25;;;6.68;;
28166;SDS011;15455;53.376;-6.262;2024-03-02T01:21:02;7.93;;;7.22;;
28166;SDS011;15455;53.376;-6.262;2024-03-02T01:23:48;8.25;;;7.55;;
28166;SDS011;15455;53.376;-6.262;2024-03-02T01:26:33;9.48;;;7.32;;
28166;SDS011;15455;53.376;-6.262;2024-03-02T01:29:19;6.88;;;6.38;;
28166;SDS011;15455;53.376;-6.262;2024-03-02T01:32:05;15.00;;;7.20;;
28166;SDS011;15455;53.376;-6.262;2024-03-02T01:34:50;6.75;;;6.18;;
28166;SDS011;15455;53.376;-6.262;2024-03-02T01:37:36;8.57;;;5.72;;
28166;SDS011;15455;53.376;-6.262;2024-03-02T01:40:22;6.82;;;6.07;;
28166;SDS011;15455;53.376;-6.262;2024-03-02T01:43:11;9.23;;;5.68;;
28166;SDS011;15455;53.376;-6.262;2024-03-02T01:45:57;6.13;;;5.72;;
28166;SDS011;15455;53.376;-6.262;2024-03-02T01:48:43;8.82;;;5.30;;
28166;SDS011;15455;53.376;-6.262;2024-03-02T01:51:28;5.15;;;4.07;;
28166;SDS011;15455;53.376;-6.262;2024-03-02T01:54:14;5.03;;;4.57;;
28166;SDS011;15455;53.376;-6.262;2024-03-02T01:57:00;10.07;;;4.53;;
28166;SDS011;15455;53.376;-6.262;2024-03-02T01:59:46;6.43;;;4.50;;
28166;SDS011;15455;53.376;-6.262;2024-03-02T02:02:36;5.57;;;3.85;;
28166;SDS011;15455;53.376;-6.262;2024-03-02T02:05:22;5.72;;;3.63;;
28166;SDS011;15455;53.376;-6.262;2024-03-02T02:08:07;9.77;;;3.92;;
28166;SDS011;15455;53.376;-6.262;2024-03-02T02:10:53;8.52;;;4.20;;
28166;SDS011;15455;53.376;-6.262;2024-03-02T02:13:39;7.30;;;4.05;;
28166;SDS011;15455;53.376;-6.262;2024-03-02T02:16:24;3.58;;;3.17;;
28166;SDS011;15455;53.376;-6.262;2024-03-02T02:19:10;5.72;;;3.58;;
28166;SDS011;15455;53.376;-6.262;2024-03-02T02:21:56;8.98;;;3.97;;
28166;SDS011;15455;53.376;-6.262;2024-03-02T02:24:41;6.20;;;3.42;;
28166;SDS011;15455;53.376;-6.262;2024-03-02T02:27:27;5.50;;;3.85;;
28166;SDS011;15455;53.376;-6.262;2024-03-02T02:30:12;7.68;;;3.40;;
28166;SDS011;15455;53.376;-6.262;2024-03-02T02:32:59;13.27;;;3.97;;
28166;SDS011;15455;53.376;-6.262;2024-03-02T02:35:45;7.65;;;3.60;;
28166;SDS011;15455;53.376;-6.262;2024-03-02T02:38:30;7.28;;;3.83;;
28166;SDS011;15455;53.376;-6.262;2024-03-02T02:41:19;10.43;;;4.32;;
28166;SDS011;15455;53.376;-6.262;2024-03-02T02:44:05;6.50;;;4.07;;
28166;SDS011;15455;53.376;-6.262;2024-03-02T02:46:50;13.60;;;5.43;;
28166;SDS011;15455;53.376;-6.262;2024-03-02T02:49:36;14.00;;;4.32;;
28166;SDS011;15455;53.376;-6.262;2024-03-02T02:52:21;6.97;;;2.85;;
28166;SDS011;15455;53.376;-6.262;2024-03-02T02:55:08;3.63;;;3.13;;
28166;SDS011;15455;53.376;-6.262;2024-03-02T02:57:59;4.82;;;3.55;;
28166;SDS011;15455;53.376;-6.262;2024-03-02T03:00:45;7.22;;;3.97;;
28166;SDS011;15455;53.376;-6.262;2024-03-02T03:03:30;10.13;;;4.88;;
28166;SDS011;15455;53.376;-6.262;2024-03-02T03:06:16;11.48;;;5.18;;
28166;SDS011;15455;53.376;-6.262;2024-03-02T03:09:01;7.45;;;3.88;;
28166;SDS011;15455;53.376;-6.262;2024-03-02T03:11:47;7.65;;;4.78;;
28166;SDS011;15455;53.376;-6.262;2024-03-02T03:14:33;16.40;;;4.95;;
28166;SDS011;15455;53.376;-6.262;2024-03-02T03:17:18;11.32;;;5.20;;
28166;SDS011;15455;53.376;-6.262;2024-03-02T03:20:04;6.97;;;5.18;;
28166;SDS011;15455;53.376;-6.262;2024-03-02T03:22:51;8.80;;;4.25;;
28166;SDS011;15455;53.376;-6.262;2024-03-02T03:25:36;7.50;;;5.10;;
28166;SDS011;15455;53.376;-6.262;2024-03-02T03:28:21;8.30;;;4.22;;
28166;SDS011;15455;53.376;-6.262;2024-03-02T03:31:07;10.23;;;5.15;;
28166;SDS011;15455;53.376;-6.262;2024-03-02T03:33:52;7.40;;;4.18;;
28166;SDS011;15455;53.376;-6.262;2024-03-02T03:36:38;5.40;;;4.93;;
28166;SDS011;15455;53.376;-6.262;2024-03-02T03:39:23;10.82;;;5.75;;
28166;SDS011;15455;53.376;-6.262;2024-03-02T03:42:09;12.65;;;6.18;;
28166;SDS011;15455;53.376;-6.262;2024-03-02T03:44:54;6.40;;;5.80;;
28166;SDS011;15455;53.376;-6.262;2024-03-02T03:47:40;7.47;;;5.90;;
28166;SDS011;15455;53.376;-6.262;2024-03-02T03:50:25;11.88;;;5.10;;
28166;SDS011;15455;53.376;-6.262;2024-03-02T03:53:11;12.55;;;6.50;;
28166;SDS011;15455;53.376;-6.262;2024-03-02T03:55:56;19.77;;;6.43;;
28166;SDS011;15455;53.376;-6.262;2024-03-02T03:58:42;6.93;;;5.78;;
28166;SDS011;15455;53.376;-6.262;2024-03-02T04:01:27;10.05;;;6.72;;
28166;SDS011;15455;53.376;-6.262;2024-03-02T04:04:13;8.32;;;5.68;;
28166;SDS011;15455;53.376;-6.262;2024-03-02T04:06:59;6.97;;;5.97;;
28166;SDS011;15455;53.376;-6.262;2024-03-02T04:09:44;12.43;;;6.95;;
28166;SDS011;15455;53.376;-6.262;2024-03-02T04:12:30;12.20;;;6.97;;
28166;SDS011;15455;53.376;-6.262;2024-03-02T04:15:16;6.80;;;6.18;;
28166;SDS011;15455;53.376;-6.262;2024-03-02T04:18:02;5.07;;;4.65;;
28166;SDS011;15455;53.376;-6.262;2024-03-02T04:20:47;15.43;;;6.30;;
28166;SDS011;15455;53.376;-6.262;2024-03-02T04:23:38;11.00;;;5.60;;
28166;SDS011;15455;53.376;-6.262;2024-03-02T04:26:24;8.15;;;6.38;;
28166;SDS011;15455;53.376;-6.262;2024-03-02T04:29:10;12.65;;;6.75;;
28166;SDS011;15455;53.376;-6.262;2024-03-02T04:31:56;7.28;;;6.72;;
28166;SDS011;15455;53.376;-6.262;2024-03-02T04:34:41;8.52;;;5.97;;
28166;SDS011;15455;53.376;-6.262;2024-03-02T04:37:27;8.15;;;6.00;;
28166;SDS011;15455;53.376;-6.262;2024-03-02T04:40:13;13.13;;;6.53;;
28166;SDS011;15455;53.376;-6.262;2024-03-02T04:42:59;7.38;;;5.90;;
28166;SDS011;15455;53.376;-6.262;2024-03-02T04:45:44;12.10;;;8.93;;
28166;SDS011;15455;53.376;-6.262;2024-03-02T04:48:30;13.15;;;7.18;;
28166;SDS011;15455;53.376;-6.262;2024-03-02T04:51:16;8.13;;;6.20;;
28166;SDS011;15455;53.376;-6.262;2024-03-02T04:54:01;9.68;;;5.85;;
28166;SDS011;15455;53.376;-6.262;2024-03-02T04:56:47;7.35;;;6.95;;
28166;SDS011;15455;53.376;-6.262;2024-03-02T04:59:36;6.50;;;5.90;;
28166;SDS011;15455;53.376;-6.262;2024-03-02T05:02:21;9.38;;;7.45;;
28166;SDS011;15455;53.376;-6.262;2024-03-02T05:05:07;7.68;;;5.57;;
28166;SDS011;15455;53.376;-6.262;2024-03-02T05:07:53;14.95;;;7.38;;
28166;SDS011;15455;53.376;-6.262;2024-03-02T05:10:39;8.27;;;6.97;;
28166;SDS011;15455;53.376;-6.262;2024-03-02T05:13:24;6.93;;;6.30;;
28166;SDS011;15455;53.376;-6.262;2024-03-02T05:16:10;6.80;;;6.30;;
28166;SDS011;15455;53.376;-6.262;2024-03-02T05:18:55;10.75;;;6.68;;
28166;SDS011;15455;53.376;-6.262;2024-03-02T05:21:41;7.97;;;7.22;;
28166;SDS011;15455;53.376;-6.262;2024-03-02T05:24:27;8.15;;;6.32;;
28166;SDS011;15455;53.376;-6.262;2024-03-02T05:27:13;6.18;;;5.85;;
28166;SDS011;15455;53.376;-6.262;2024-03-02T05:29:58;11.70;;;6.25;;
28166;SDS011;15455;53.376;-6.262;2024-03-02T05:32:44;13.65;;;7.25;;
28166;SDS011;15455;53.376;-6.262;2024-03-02T05:35:30;6.70;;;6.28;;
28166;SDS011;15455;53.376;-6.262;2024-03-02T05:38:15;8.15;;;7.28;;
28166;SDS011;15455;53.376;-6.262;2024-03-02T05:41:01;7.18;;;6.65;;
28166;SDS011;15455;53.376;-6.262;2024-03-02T05:43:47;11.38;;;6.80;;
28166;SDS011;15455;53.376;-6.262;2024-03-02T05:46:32;9.65;;;7.53;;
28166;SDS011;15455;53.376;-6.262;2024-03-02T05:49:18;12.32;;;8.10;;
28166;SDS011;15455;53.376;-6.262;2024-03-02T05:52:03;20.05;;;8.45;;
28166;SDS011;15455;53.376;-6.262;2024-03-02T05:54:49;10.05;;;7.93;;
28166;SDS011;15455;53.376;-6.262;2024-03-02T05:57:35;11.18;;;7.55;;
28166;SDS011;15455;53.376;-6.262;2024-03-02T06:00:29;8.95;;;6.65;;
28166;SDS011;15455;53.376;-6.262;2024-03-02T06:03:16;7.65;;;7.25;;
28166;SDS011;15455;53.376;-6.262;2024-03-02T06:06:02;11.60;;;9.05;;
28166;SDS011;15455;53.376;-6.262;2024-03-02T06:08:48;8.95;;;8.13;;
28166;SDS011;15455;53.376;-6.262;2024-03-02T06:11:37;6.75;;;6.32;;
28166;SDS011;15455;53.376;-6.262;2024-03-02T06:14:25;9.10;;;8.50;;
28166;SDS011;15455;53.376;-6.262;2024-03-02T06:17:11;6.55;;;5.97;;
28166;SDS011;15455;53.376;-6.262;2024-03-02T06:19:56;13.75;;;8.52;;
28166;SDS011;15455;53.376;-6.262;2024-03-02T06:22:41;8.77;;;7.95;;
28166;SDS011;15455;53.376;-6.262;2024-03-02T06:25:27;10.02;;;9.05;;
28166;SDS011;15455;53.376;-6.262;2024-03-02T06:28:13;8.57;;;6.70;;
28166;SDS011;15455;53.376;-6.262;2024-03-02T06:31:01;10.82;;;7.15;;
28166;SDS011;15455;53.376;-6.262;2024-03-02T06:33:47;7.78;;;6.15;;
28166;SDS011;15455;53.376;-6.262;2024-03-02T06:36:33;7.35;;;6.72;;
28166;SDS011;15455;53.376;-6.262;2024-03-02T06:39:19;14.25;;;7.55;;
28166;SDS011;15455;53.376;-6.262;2024-03-02T06:42:05;11.18;;;7.75;;
28166;SDS011;15455;53.376;-6.262;2024-03-02T06:44:51;8.70;;;7.88;;
28166;SDS011;15455;53.376;-6.262;2024-03-02T06:47:36;8.32;;;7.55;;
28166;SDS011;15455;53.376;-6.262;2024-03-02T06:50:22;8.65;;;8.15;;
28166;SDS011;15455;53.376;-6.262;2024-03-02T06:53:07;7.07;;;6.45;;
28166;SDS011;15455;53.376;-6.262;2024-03-02T06:55:53;7.68;;;7.15;;
28166;SDS011;15455;53.376;-6.262;2024-03-02T06:58:38;11.52;;;8.30;;
28166;SDS011;15455;53.376;-6.262;2024-03-02T07:01:24;8.35;;;7.63;;
28166;SDS011;15455;53.376;-6.262;2024-03-02T07:04:11;7.88;;;7.28;;
28166;SDS011;15455;53.376;-6.262;2024-03-02T07:06:57;10.95;;;6.70;;
28166;SDS011;15455;53.376;-6.262;2024-03-02T07:09:42;6.65;;;6.15;;
28166;SDS011;15455;53.376;-6.262;2024-03-02T07:12:28;13.88;;;7.20;;
28166;SDS011;15455;53.376;-6.262;2024-03-02T07:15:13;9.68;;;8.65;;
28166;SDS011;15455;53.376;-6.262;2024-03-02T07:18:18;6.63;;;6.13;;
28166;SDS011;15455;53.376;-6.262;2024-03-02T07:21:03;8.32;;;7.80;;
28166;SDS011;15455;53.376;-6.262;2024-03-02T07:23:49;8.98;;;8.02;;
28166;SDS011;15455;53.376;-6.262;2024-03-02T07:26:35;6.93;;;6.38;;
28166;SDS011;15455;53.376;-6.262;2024-03-02T07:29:24;10.68;;;7.03;;
28166;SDS011;15455;53.376;-6.262;2024-03-02T07:32:10;8.65;;;8.05;;
28166;SDS011;15455;53.376;-6.262;2024-03-02T07:34:56;8.38;;;7.05;;
28166;SDS011;15455;53.376;-6.262;2024-03-02T07:37:42;7.82;;;7.28;;
28166;SDS011;15455;53.376;-6.262;2024-03-02T07:40:28;8.85;;;8.30;;
28166;SDS011;15455;53.376;-6.262;2024-03-02T07:43:13;7.03;;;6.75;;
28166;SDS011;15455;53.376;-6.262;2024-03-02T07:45:59;9.00;;;8.02;;
28166;SDS011;15455;53.376;-6.262;2024-03-02T07:48:44;13.80;;;8.43;;
28166;SDS011;15455;53.376;-6.262;2024-03-02T07:51:30;9.20;;;8.80;;
28166;SDS011;15455;53.376;-6.262;2024-03-02T07:54:15;10.60;;;9.90;;
28166;SDS011;15455;53.376;-6.262;2024-03-02T07:57:01;9.32;;;8.18;;
28166;SDS011;15455;53.376;-6.262;2024-03-02T07:59:47;8.05;;;7.43;;
28166;SDS011;15455;53.376;-6.262;2024-03-02T08:02:33;10.10;;;9.25;;
28166;SDS011;15455;53.376;-6.262;2024-03-02T08:05:18;9.48;;;8.68;;
28166;SDS011;15455;53.376;-6.262;2024-03-02T08:08:04;15.07;;;7.78;;
28166;SDS011;15455;53.376;-6.262;2024-03-02T08:10:50;8.57;;;7.90;;
28166;SDS011;15455;53.376;-6.262;2024-03-02T08:13:36;16.00;;;8.85;;
28166;SDS011;15455;53.376;-6.262;2024-03-02T08:16:22;9.43;;;9.02;;
28166;SDS011;15455;53.376;-6.262;2024-03-02T08:19:08;8.90;;;8.38;;
28166;SDS011;15455;53.376;-6.262;2024-03-02T08:21:54;12.30;;;11.07;;
28166;SDS011;15455;53.376;-6.262;2024-03-02T08:24:40;10.15;;;9.20;;
28166;SDS011;15455;53.376;-6.262;2024-03-02T08:27:26;8.98;;;8.65;;
28166;SDS011;15455;53.376;-6.262;2024-03-02T08:30:12;9.38;;;8.68;;
28166;SDS011;15455;53.376;-6.262;2024-03-02T08:32:58;14.43;;;11.68;;
28166;SDS011;15455;53.376;-6.262;2024-03-02T08:35:43;9.30;;;8.70;;
28166;SDS011;15455;53.376;-6.262;2024-03-02T08:38:29;12.35;;;11.48;;
28166;SDS011;15455;53.376;-6.262;2024-03-02T08:41:15;11.30;;;10.57;;
28166;SDS011;15455;53.376;-6.262;2024-03-02T08:44:01;9.00;;;8.27;;
28166;SDS011;15455;53.376;-6.262;2024-03-02T08:46:47;7.05;;;6.57;;
28166;SDS011;15455;53.376;-6.262;2024-03-02T08:49:32;10.60;;;10.20;;
28166;SDS011;15455;53.376;-6.262;2024-03-02T08:52:18;11.73;;;10.20;;
28166;SDS011;15455;53.376;-6.262;2024-03-02T08:55:04;9.05;;;8.27;;
28166;SDS011;15455;53.376;-6.262;2024-03-02T08:57:50;12.75;;;11.95;;
28166;SDS011;15455;53.376;-6.262;2024-03-02T09:00:36;11.85;;;10.77;;
28166;SDS011;15455;53.376;-6.262;2024-03-02T09:03:21;8.98;;;8.43;;
28166;SDS011;15455;53.376;-6.262;2024-03-02T09:06:07;12.88;;;9.90;;
28166;SDS011;15455;53.376;-6.262;2024-03-02T09:08:52;8.57;;;7.93;;
28166;SDS011;15455;53.376;-6.262;2024-03-02T09:11:38;10.23;;;9.63;;
28166;SDS011;15455;53.376;-6.262;2024-03-02T09:14:24;8.30;;;8.00;;
28166;SDS011;15455;53.376;-6.262;2024-03-02T09:17:10;10.68;;;9.75;;
28166;SDS011;15455;53.376;-6.262;2024-03-02T09:19:57;7.47;;;6.95;;
28166;SDS011;15455;53.376;-6.262;2024-03-02T09:22:42;7.97;;;7.57;;
28166;SDS011;15455;53.376;-6.262;2024-03-02T09:25:28;8.65;;;8.10;;
28166;SDS011;15455;53.376;-6.262;2024-03-02T09:28:15;7.82;;;7.35;;
28166;SDS011;15455;53.376;-6.262;2024-03-02T09:31:01;8.43;;;5.50;;
28166;SDS011;15455;53.376;-6.262;2024-03-02T09:33:46;6.45;;;6.03;;
28166;SDS011;15455;53.376;-6.262;2024-03-02T09:36:32;7.35;;;6.85;;
28166;SDS011;15455;53.376;-6.262;2024-03-02T09:39:18;5.97;;;4.55;;
28166;SDS011;15455;53.376;-6.262;2024-03-02T09:42:04;7.35;;;5.30;;
28166;SDS011;15455;53.376;-6.262;2024-03-02T09:44:50;4.88;;;4.45;;
28166;SDS011;15455;53.376;-6.262;2024-03-02T09:47:37;6.25;;;5.70;;
28166;SDS011;15455;53.376;-6.262;2024-03-02T09:50:23;7.28;;;4.32;;
28166;SDS011;15455;53.376;-6.262;2024-03-02T09:53:09;7.53;;;5.72;;
28166;SDS011;15455;53.376;-6.262;2024-03-02T09:55:56;7.05;;;6.65;;
28166;SDS011;15455;53.376;-6.262;2024-03-02T09:58:41;5.60;;;5.38;;
28166;SDS011;15455;53.376;-6.262;2024-03-02T10:01:27;7.68;;;4.72;;
28166;SDS011;15455;53.376;-6.262;2024-03-02T10:04:13;7.88;;;5.43;;
28166;SDS011;15455;53.376;-6.262;2024-03-02T10:07:14;9.38;;;4.90;;
28166;SDS011;15455;53.376;-6.262;2024-03-02T10:10:14;5.85;;;3.80;;
28166;SDS011;15455;53.376;-6.262;2024-03-02T10:13:04;6.53;;;3.75;;
28166;SDS011;15455;53.376;-6.262;2024-03-02T10:15:53;9.30;;;4.78;;
28166;SDS011;15455;53.376;-6.262;2024-03-02T10:18:40;13.40;;;4.82;;
28166;SDS011;15455;53.376;-6.262;2024-03-02T10:21:25;3.90;;;3.55;;
28166;SDS011;15455;53.376;-6.262;2024-03-02T10:24:11;4.07;;;2.88;;
28166;SDS011;15455;53.376;-6.262;2024-03-02T10:26:57;7.20;;;5.30;;
28166;SDS011;15455;53.376;-6.262;2024-03-02T10:29:46;9.82;;;4.22;;
28166;SDS011;15455;53.376;-6.262;2024-03-02T10:32:32;5.50;;;3.35;;
28166;SDS011;15455;53.376;-6.262;2024-03-02T10:35:18;4.90;;;3.70;;
28166;SDS011;15455;53.376;-6.262;2024-03-02T10:38:06;8.45;;;4.50;;
28166;SDS011;15455;53.376;-6.262;2024-03-02T10:40:52;6.85;;;2.88;;
28166;SDS011;15455;53.376;-6.262;2024-03-02T10:43:38;6.25;;;3.75;;
28166;SDS011;15455;53.376;-6.262;2024-03-02T10:46:24;3.63;;;3.30;;
28166;SDS011;15455;53.376;-6.262;2024-03-02T10:49:14;3.70;;;3.42;;
28166;SDS011;15455;53.376;-6.262;2024-03-02T10:52:00;3.55;;;3.25;;
28166;SDS011;15455;53.376;-6.262;2024-03-02T10:54:46;4.05;;;3.65;;
28166;SDS011;15455;53.376;-6.262;2024-03-02T10:57:33;3.03;;;2.38;;
28166;SDS011;15455;53.376;-6.262;2024-03-02T11:00:35;2.38;;;2.20;;
28166;SDS011;15455;53.376;-6.262;2024-03-02T11:03:24;5.38;;;2.80;;
28166;SDS011;15455;53.376;-6.262;2024-03-02T11:06:09;1.80;;;1.80;;
28166;SDS011;15455;53.376;-6.262;2024-03-02T11:08:58;3.80;;;2.60;;
28166;SDS011;15455;53.376;-6.262;2024-03-02T11:11:56;3.50;;;2.75;;
28166;SDS011;15455;53.376;-6.262;2024-03-02T11:14:44;2.30;;;2.10;;
28166;SDS011;15455;53.376;-6.262;2024-03-02T11:17:32;4.13;;;2.10;;
28166;SDS011;15455;53.376;-6.262;2024-03-02T11:20:17;5.65;;;1.98;;
28166;SDS011;15455;53.376;-6.262;2024-03-02T11:23:05;3.80;;;1.60;;
28166;SDS011;15455;53.376;-6.262;2024-03-02T11:25:52;7.30;;;2.65;;
28166;SDS011;15455;53.376;-6.262;2024-03-02T11:28:37;1.88;;;1.73;;
28166;SDS011;15455;53.376;-6.262;2024-03-02T11:31:23;3.33;;;2.45;;
28166;SDS011;15455;53.376;-6.262;2024-03-02T11:34:49;2.38;;;1.88;;
28166;SDS011;15455;53.376;-6.262;2024-03-02T11:37:35;5.80;;;2.13;;
28166;SDS011;15455;53.376;-6.262;2024-03-02T11:40:21;4.38;;;2.08;;
28166;SDS011;15455;53.376;-6.262;2024-03-02T11:43:07;1.55;;;1.42;;
28166;SDS011;15455;53.376;-6.262;2024-03-02T11:46:00;1.83;;;1.73;;
28166;SDS011;15455;53.376;-6.262;2024-03-02T11:48:49;3.28;;;1.55;;
28166;SDS011;15455;53.376;-6.262;2024-03-02T11:51:35;2.75;;;1.45;;
28166;SDS011;15455;53.376;-6.262;2024-03-02T11:54:21;1.90;;;1.80;;
28166;SDS011;15455;53.376;-6.262;2024-03-02T11:57:07;2.17;;;1.30;;
28166;SDS011;15455;53.376;-6.262;2024-03-02T11:59:53;2.28;;;1.50;;
28166;SDS011;15455;53.376;-6.262;2024-03-02T12:02:39;3.17;;;1.02;;
28166;SDS011;15455;53.376;-6.262;2024-03-02T12:05:30;1.02;;;1.02;;
28166;SDS011;15455;53.376;-6.262;2024-03-02T12:08:16;1.20;;;1.20;;
28166;SDS011;15455;53.376;-6.262;2024-03-02T12:11:02;5.03;;;1.80;;
28166;SDS011;15455;53.376;-6.262;2024-03-02T12:13:52;2.08;;;1.25;;
28166;SDS011;15455;53.376;-6.262;2024-03-02T12:16:45;2.22;;;1.33;;
28166;SDS011;15455;53.376;-6.262;2024-03-02T12:19:31;1.38;;;1.27;;
28166;SDS011;15455;53.376;-6.262;2024-03-02T12:22:18;2.33;;;0.90;;
28166;SDS011;15455;53.376;-6.262;2024-03-02T12:25:04;1.67;;;1.15;;
28166;SDS011;15455;53.376;-6.262;2024-03-02T12:27:50;5.82;;;1.13;;
28166;SDS011;15455;53.376;-6.262;2024-03-02T12:30:38;1.67;;;1.13;;
28166;SDS011;15455;53.376;-6.262;2024-03-02T12:33:24;3.75;;;0.80;;
28166;SDS011;15455;53.376;-6.262;2024-03-02T12:36:13;2.15;;;0.77;;
28166;SDS011;15455;53.376;-6.262;2024-03-02T12:38:58;1.13;;;0.65;;
28166;SDS011;15455;53.376;-6.262;2024-03-02T12:41:44;1.40;;;0.68;;
28166;SDS011;15455;53.376;-6.262;2024-03-02T12:44:31;1.38;;;1.27;;
28166;SDS011;15455;53.376;-6.262;2024-03-02T12:47:16;2.53;;;0.90;;
28166;SDS011;15455;53.376;-6.262;2024-03-02T12:50:03;2.08;;;0.82;;
28166;SDS011;15455;53.376;-6.262;2024-03-02T12:52:52;2.00;;;1.10;;
28166;SDS011;15455;53.376;-6.262;2024-03-02T12:55:39;1.95;;;1.58;;
28166;SDS011;15455;53.376;-6.262;2024-03-02T12:58:26;0.85;;;0.85;;
28166;SDS011;15455;53.376;-6.262;2024-03-02T13:01:14;1.23;;;1.05;;
28166;SDS011;15455;53.376;-6.262;2024-03-02T13:04:00;0.85;;;0.75;;
28166;SDS011;15455;53.376;-6.262;2024-03-02T13:06:46;2.35;;;1.45;;
28166;SDS011;15455;53.376;-6.262;2024-03-02T13:09:32;3.50;;;0.90;;
28166;SDS011;15455;53.376;-6.262;2024-03-02T13:12:19;1.55;;;0.90;;
28166;SDS011;15455;53.376;-6.262;2024-03-02T13:15:05;2.80;;;1.35;;
28166;SDS011;15455;53.376;-6.262;2024-03-02T13:17:51;1.55;;;0.75;;
28166;SDS011;15455;53.376;-6.262;2024-03-02T13:20:36;1.60;;;1.50;;
28166;SDS011;15455;53.376;-6.262;2024-03-02T13:23:22;2.53;;;1.30;;
28166;SDS011;15455;53.376;-6.262;2024-03-02T13:26:07;5.78;;;3.03;;
28166;SDS011;15455;53.376;-6.262;2024-03-02T13:28:55;2.17;;;0.90;;
28166;SDS011;15455;53.376;-6.262;2024-03-02T13:31:41;1.30;;;1.20;;
28166;SDS011;15455;53.376;-6.262;2024-03-02T13:34:26;4.45;;;1.60;;
28166;SDS011;15455;53.376;-6.262;2024-03-02T13:37:12;1.83;;;1.20;;
28166;SDS011;15455;53.376;-6.262;2024-03-02T13:39:57;3.15;;;1.17;;
28166;SDS011;15455;53.376;-6.262;2024-03-02T13:42:43;4.22;;;0.80;;
28166;SDS011;15455;53.376;-6.262;2024-03-02T13:45:28;2.45;;;0.98;;
28166;SDS011;15455;53.376;-6.262;2024-03-02T13:48:14;2.83;;;1.10;;
28166;SDS011;15455;53.376;-6.262;2024-03-02T13:51:00;1.95;;;1.02;;
28166;SDS011;15455;53.376;-6.262;2024-03-02T13:53:46;2.53;;;1.33;;
28166;SDS011;15455;53.376;-6.262;2024-03-02T13:56:31;2.35;;;0.82;;
28166;SDS011;15455;53.376;-6.262;2024-03-02T13:59:17;1.25;;;1.08;;
28166;SDS011;15455;53.376;-6.262;2024-03-02T14:02:03;1.15;;;0.70;;
28166;SDS011;15455;53.376;-6.262;2024-03-02T14:04:50;4.32;;;0.80;;
28166;SDS011;15455;53.376;-6.262;2024-03-02T14:07:35;4.15;;;1.67;;
28166;SDS011;15455;53.376;-6.262;2024-03-02T14:10:25;2.30;;;0.88;;
28166;SDS011;15455;53.376;-6.262;2024-03-02T14:13:12;2.38;;;0.70;;
28166;SDS011;15455;53.376;-6.262;2024-03-02T14:15:58;2.33;;;1.33;;
28166;SDS011;15455;53.376;-6.262;2024-03-02T14:18:43;2.90;;;0.93;;
28166;SDS011;15455;53.376;-6.262;2024-03-02T14:21:30;3.58;;;1.00;;
28166;SDS011;15455;53.376;-6.262;2024-03-02T14:24:15;4.25;;;1.65;;
28166;SDS011;15455;53.376;-6.262;2024-03-02T14:27:01;3.70;;;0.77;;
28166;SDS011;15455;53.376;-6.262;2024-03-02T14:30:08;0.75;;;0.60;;
28166;SDS011;15455;53.376;-6.262;2024-03-02T14:32:54;1.20;;;0.60;;
28166;SDS011;15455;53.376;-6.262;2024-03-02T14:35:40;1.13;;;0.75;;
28166;SDS011;15455;53.376;-6.262;2024-03-02T14:38:26;3.63;;;1.50;;
28166;SDS011;15455;53.376;-6.262;2024-03-02T14:41:11;3.78;;;1.13;;
28166;SDS011;15455;53.376;-6.262;2024-03-02T14:43:58;2.53;;;1.42;;
28166;SDS011;15455;53.376;-6.262;2024-03-02T14:46:46;2.45;;;1.17;;
28166;SDS011;15455;53.376;-6.262;2024-03-02T14:49:32;1.23;;;1.13;;
28166;SDS011;15455;53.376;-6.262;2024-03-02T14:52:20;1.45;;;1.00;;
28166;SDS011;15455;53.376;-6.262;2024-03-02T14:55:06;2.10;;;1.05;;
28166;SDS011;15455;53.376;-6.262;2024-03-02T14:57:53;0.98;;;0.93;;
28166;SDS011;15455;53.376;-6.262;2024-03-02T15:00:38;1.23;;;0.95;;
28166;SDS011;15455;53.376;-6.262;2024-03-02T15:03:24;0.88;;;0.73;;
28166;SDS011;15455;53.376;-6.262;2024-03-02T15:06:10;1.33;;;0.70;;
28166;SDS011;15455;53.376;-6.262;2024-03-02T15:08:55;1.88;;;0.77;;
28166;SDS011;15455;53.376;-6.262;2024-03-02T15:11:41;1.10;;;0.95;;
28166;SDS011;15455;53.376;-6.262;2024-03-02T15:14:29;2.75;;;1.05;;
28166;SDS011;15455;53.376;-6.262;2024-03-02T15:17:15;2.70;;;1.10;;
28166;SDS011;15455;53.376;-6.262;2024-03-02T15:20:01;1.67;;;1.17;;
28166;SDS011;15455;53.376;-6.262;2024-03-02T15:22:47;5.55;;;1.52;;
28166;SDS011;15455;53.376;-6.262;2024-03-02T15:25:33;2.05;;;1.50;;
28166;SDS011;15455;53.376;-6.262;2024-03-02T15:28:19;2.92;;;1.10;;
28166;SDS011;15455;53.376;-6.262;2024-03-02T15:31:04;6.75;;;2.58;;
28166;SDS011;15455;53.376;-6.262;2024-03-02T15:33:50;8.05;;;2.10;;
28166;SDS011;15455;53.376;-6.262;2024-03-02T15:36:36;5.82;;;2.45;;
28166;SDS011;15455;53.376;-6.262;2024-03-02T15:39:22;3.72;;;1.35;;
28166;SDS011;15455;53.376;-6.262;2024-03-02T15:42:08;3.28;;;1.27;;
28166;SDS011;15455;53.376;-6.262;2024-03-02T15:44:53;4.20;;;1.40;;
28166;SDS011;15455;53.376;-6.262;2024-03-02T15:47:40;2.60;;;1.02;;
28166;SDS011;15455;53.376;-6.262;2024-03-02T15:50:25;0.90;;;0.80;;
28166;SDS011;15455;53.376;-6.262;2024-03-02T15:53:11;2.97;;;1.60;;
28166;SDS011;15455;53.376;-6.262;2024-03-02T15:55:58;4.88;;;0.80;;
28166;SDS011;15455;53.376;-6.262;2024-03-02T15:58:44;4.20;;;1.20;;
28166;SDS011;15455;53.376;-6.262;2024-03-02T16:01:31;5.10;;;1.38;;
28166;SDS011;15455;53.376;-6.262;2024-03-02T16:04:17;2.90;;;1.52;;
28166;SDS011;15455;53.376;-6.262;2024-03-02T16:07:03;1.13;;;1.02;;
28166;SDS011;15455;53.376;-6.262;2024-03-02T16:09:48;7.22;;;1.60;;
28166;SDS011;15455;53.376;-6.262;2024-03-02T16:12:34;1.80;;;1.25;;
28166;SDS011;15455;53.376;-6.262;2024-03-02T16:15:19;1.50;;;1.30;;
28166;SDS011;15455;53.376;-6.262;2024-03-02T16:18:05;3.53;;;1.75;;
28166;SDS011;15455;53.376;-6.262;2024-03-02T16:20:51;6.57;;;3.20;;
28166;SDS011;15455;53.376;-6.262;2024-03-02T16:23:37;7.47;;;3.63;;
28166;SDS011;15455;53.376;-6.262;2024-03-02T16:26:22;7.57;;;2.40;;